Time;durP1;ratioP1;P1;durP2;ratioP2;P2;SDS_P1;SDS_P2;PMS_P1;PMS_P2;Temp;Humidity;BMP_temperature;BMP_pressure;BME280_temperature;BME280_humidity;BME280_pressure;Samples;Min_cycle;Max_cycle;Signal;HPM_P1;HPM_P2
2023/09/03 00:00:57;;;;;;;4.53;2.47;;;;;;;;;;4995101;28;20389;-83
2023/09/03 00:03:26;;;;;;;12.25;2.70;;;;;;;;;;5011120;28;20073;-83
2023/09/03 00:05:54;;;;;;;4.13;2.42;;;;;;;;;;5010755;28;20052;-83
2023/09/03 00:08:24;;;;;;;6.32;2.47;;;;;;;;;;5012367;28;20042;-83
2023/09/03 00:10:54;;;;;;;3.00;2.40;;;;;;;;;;5010141;28;20050;-83
2023/09/03 00:13:22;;;;;;;3.63;1.95;;;;;;;;;;5011802;28;20061;-83
2023/09/03 00:15:49;;;;;;;10.15;2.95;;;;;;;;;;5015422;28;20057;-83
2023/09/03 00:18:18;;;;;;;4.22;2.22;;;;;;;;;;5013146;28;20482;-84
2023/09/03 00:20:57;;;;;;;3.15;2.42;;;;;;;;;;5011240;28;20041;-83
2023/09/03 00:23:24;;;;;;;2.67;1.60;;;;;;;;;;5027139;28;20054;-83
2023/09/03 00:25:52;;;;;;;6.68;2.35;;;;;;;;;;5011379;28;20057;-83
2023/09/03 00:28:21;;;;;;;4.45;2.45;;;;;;;;;;5012879;28;20061;-83
2023/09/03 00:31:03;;;;;;;2.97;2.03;;;;;;;;;;4994982;28;20049;-83
2023/09/03 00:33:32;;;;;;;3.53;2.03;;;;;;;;;;4993041;28;20504;-84
2023/09/03 00:36:04;;;;;;;4.28;2.28;;;;;;;;;;5012153;28;20049;-83
2023/09/03 00:38:32;;;;;;;3.88;1.90;;;;;;;;;;5011650;28;20058;-83
2023/09/03 00:41:04;;;;;;;2.95;2.38;;;;;;;;;;5010564;28;20046;-84
2023/09/03 00:43:32;;;;;;;2.92;2.08;;;;;;;;;;5026742;28;20060;-83
2023/09/03 00:46:02;;;;;;;4.30;1.92;;;;;;;;;;5036621;28;20050;-83
2023/09/03 00:48:33;;;;;;;3.78;2.50;;;;;;;;;;5012398;28;20508;-83
2023/09/03 00:51:03;;;;;;;3.42;1.90;;;;;;;;;;5011657;28;20476;-83
2023/09/03 00:53:36;;;;;;;3.60;2.50;;;;;;;;;;5027101;28;20068;-83
2023/09/03 00:56:06;;;;;;;2.25;2.05;;;;;;;;;;5017330;28;20041;-83
2023/09/03 00:58:36;;;;;;;6.07;2.25;;;;;;;;;;4995447;28;20057;-83
2023/09/03 01:01:04;;;;;;;3.95;2.10;;;;;;;;;;5009967;28;20408;-83
2023/09/03 01:03:32;;;;;;;5.25;2.67;;;;;;;;;;5010128;28;20056;-83
2023/09/03 01:06:02;;;;;;;4.60;2.40;;;;;;;;;;4994015;28;20053;-83
2023/09/03 01:08:36;;;;;;;5.93;2.75;;;;;;;;;;4994014;28;20057;-83
2023/09/03 01:11:12;;;;;;;4.53;2.47;;;;;;;;;;4994029;28;20050;-83
2023/09/03 01:13:46;;;;;;;3.70;2.05;;;;;;;;;;4992349;28;20521;-82
2023/09/03 01:16:21;;;;;;;2.63;2.10;;;;;;;;;;5003409;28;20077;-83
2023/09/03 01:18:53;;;;;;;6.75;2.95;;;;;;;;;;4994543;28;20050;-83
2023/09/03 01:21:41;;;;;;;5.47;2.60;;;;;;;;;;4993782;28;20048;-83
2023/09/03 01:24:25;;;;;;;3.38;2.10;;;;;;;;;;4992414;28;20520;-83
2023/09/03 01:27:02;;;;;;;3.65;2.28;;;;;;;;;;4988615;28;20049;-83
2023/09/03 01:29:34;;;;;;;5.20;1.70;;;;;;;;;;4994217;28;20059;-83
2023/09/03 01:32:02;;;;;;;4.38;1.55;;;;;;;;;;5010593;28;20052;-84
2023/09/03 01:34:32;;;;;;;8.38;2.38;;;;;;;;;;4993676;28;20050;-84
2023/09/03 01:36:59;;;;;;;2.70;1.60;;;;;;;;;;5008929;28;20301;-84
2023/09/03 01:39:29;;;;;;;5.63;2.03;;;;;;;;;;4994463;28;20053;-84
2023/09/03 01:41:58;;;;;;;7.28;2.17;;;;;;;;;;5010420;28;20069;-84
2023/09/03 01:44:28;;;;;;;4.38;2.38;;;;;;;;;;4996558;28;20056;-84
2023/09/03 01:47:05;;;;;;;2.95;1.95;;;;;;;;;;4993417;28;20061;-83
2023/09/03 01:49:39;;;;;;;3.42;1.52;;;;;;;;;;5013493;28;20065;-81
2023/09/03 01:52:15;;;;;;;2.47;1.80;;;;;;;;;;5014118;28;20053;-81
2023/09/03 01:54:47;;;;;;;5.80;2.95;;;;;;;;;;4994269;28;20353;-81
2023/09/03 01:57:21;;;;;;;2.28;1.95;;;;;;;;;;4998079;28;20057;-80
2023/09/03 01:59:50;;;;;;;3.22;1.60;;;;;;;;;;5023261;28;20046;-80
2023/09/03 02:02:24;;;;;;;4.97;1.98;;;;;;;;;;4997986;28;20057;-80
2023/09/03 02:04:54;;;;;;;4.38;2.47;;;;;;;;;;5004601;28;20053;-80
2023/09/03 02:07:24;;;;;;;3.42;1.67;;;;;;;;;;5014212;28;20392;-80
2023/09/03 02:09:51;;;;;;;4.35;1.77;;;;;;;;;;4997371;28;20069;-80
2023/09/03 02:12:23;;;;;;;7.43;2.28;;;;;;;;;;4995486;28;20054;-81
2023/09/03 02:14:52;;;;;;;4.65;2.22;;;;;;;;;;5002487;28;20054;-81
2023/09/03 02:17:24;;;;;;;3.60;1.73;;;;;;;;;;5010152;28;20056;-81
2023/09/03 02:19:56;;;;;;;4.20;2.28;;;;;;;;;;5009009;28;20048;-81
2023/09/03 02:22:23;;;;;;;2.55;2.25;;;;;;;;;;4996851;28;20046;-80
2023/09/03 02:24:55;;;;;;;3.92;1.83;;;;;;;;;;5000716;28;20057;-80
2023/09/03 02:27:25;;;;;;;2.05;1.65;;;;;;;;;;5014148;28;20048;-80
2023/09/03 02:29:52;;;;;;;3.40;1.85;;;;;;;;;;4998101;28;20046;-80
2023/09/03 02:32:20;;;;;;;6.40;2.45;;;;;;;;;;4998290;28;20054;-81
2023/09/03 02:34:48;;;;;;;3.95;1.83;;;;;;;;;;5011636;28;20046;-81
2023/09/03 02:37:17;;;;;;;5.03;2.30;;;;;;;;;;5005720;28;20367;-81
2023/09/03 02:39:49;;;;;;;3.30;1.80;;;;;;;;;;5001744;28;20045;-81
2023/09/03 02:42:19;;;;;;;4.30;2.28;;;;;;;;;;5018594;28;20045;-81
2023/09/03 02:44:48;;;;;;;5.50;2.45;;;;;;;;;;5017230;28;20046;-81
2023/09/03 02:47:15;;;;;;;2.83;1.58;;;;;;;;;;4998874;28;20045;-81
2023/09/03 02:49:45;;;;;;;18.25;2.85;;;;;;;;;;5001269;28;20069;-82
2023/09/03 02:52:16;;;;;;;4.35;2.40;;;;;;;;;;5001938;28;20053;-81
2023/09/03 02:54:46;;;;;;;2.45;1.67;;;;;;;;;;5001593;28;20058;-81
2023/09/03 02:57:13;;;;;;;3.92;2.55;;;;;;;;;;5013267;28;20038;-81
2023/09/03 02:59:43;;;;;;;3.55;2.17;;;;;;;;;;5016364;28;20053;-81
2023/09/03 03:02:13;;;;;;;2.50;2.30;;;;;;;;;;5002871;28;20056;-81
2023/09/03 03:04:40;;;;;;;5.88;2.50;;;;;;;;;;5005014;28;20063;-81
2023/09/03 03:07:07;;;;;;;4.25;2.90;;;;;;;;;;5018814;28;20526;-81
2023/09/03 03:09:38;;;;;;;9.10;2.17;;;;;;;;;;5020902;28;20541;-81
2023/09/03 03:12:06;;;;;;;5.25;2.17;;;;;;;;;;5005695;28;20054;-81
2023/09/03 03:14:34;;;;;;;3.70;2.30;;;;;;;;;;5003040;28;20061;-81
2023/09/03 03:17:04;;;;;;;3.90;2.35;;;;;;;;;;5000134;28;20077;-81
2023/09/03 03:19:31;;;;;;;2.90;1.88;;;;;;;;;;5001615;28;20064;-81
2023/09/03 03:21:59;;;;;;;3.58;2.45;;;;;;;;;;5018883;28;20042;-81
2023/09/03 03:24:27;;;;;;;5.32;2.00;;;;;;;;;;5007098;28;20055;-81
2023/09/03 03:26:58;;;;;;;2.88;2.05;;;;;;;;;;5011786;28;20056;-81
2023/09/03 03:29:28;;;;;;;9.70;3.65;;;;;;;;;;5009488;28;20053;-82
2023/09/03 03:31:55;;;;;;;2.22;1.63;;;;;;;;;;5016715;28;20467;-82
2023/09/03 03:34:26;;;;;;;10.98;2.40;;;;;;;;;;5018294;28;20049;-82
2023/09/03 03:36:56;;;;;;;8.35;2.88;;;;;;;;;;5001398;28;20052;-81
2023/09/03 03:39:24;;;;;;;6.13;2.47;;;;;;;;;;5003739;28;20061;-81
2023/09/03 03:41:54;;;;;;;4.95;2.33;;;;;;;;;;5016746;28;20038;-81
2023/09/03 03:44:25;;;;;;;5.60;2.63;;;;;;;;;;5000497;28;20045;-81
2023/09/03 03:46:53;;;;;;;5.68;2.47;;;;;;;;;;5024338;28;20069;-81
2023/09/03 03:49:25;;;;;;;4.15;2.40;;;;;;;;;;5021940;28;20056;-81
2023/09/03 03:51:53;;;;;;;8.80;2.60;;;;;;;;;;5002699;28;20053;-81
2023/09/03 03:54:25;;;;;;;3.72;2.33;;;;;;;;;;5016700;28;20429;-81
2023/09/03 03:56:53;;;;;;;5.55;2.63;;;;;;;;;;4998571;28;20062;-81
2023/09/03 03:59:20;;;;;;;3.28;1.75;;;;;;;;;;5016195;28;20045;-81
2023/09/03 04:01:49;;;;;;;3.83;2.45;;;;;;;;;;5015742;28;20053;-82
2023/09/03 04:04:21;;;;;;;2.72;1.92;;;;;;;;;;5016569;28;20550;-81
2023/09/03 04:06:48;;;;;;;8.70;2.13;;;;;;;;;;5000471;28;20054;-81
2023/09/03 04:09:21;;;;;;;2.90;1.85;;;;;;;;;;5015579;28;20053;-81
2023/09/03 04:11:50;;;;;;;4.03;2.33;;;;;;;;;;5014932;28;20054;-81
2023/09/03 04:14:20;;;;;;;4.28;2.50;;;;;;;;;;4999821;28;20134;-81
2023/09/03 04:16:48;;;;;;;5.30;2.55;;;;;;;;;;4991581;28;20054;-81
2023/09/03 04:19:18;;;;;;;5.38;2.78;;;;;;;;;;5019561;28;20404;-81
2023/09/03 04:21:45;;;;;;;5.93;2.08;;;;;;;;;;4997567;28;20049;-81
2023/09/03 04:24:13;;;;;;;2.47;1.88;;;;;;;;;;5017460;28;20125;-81
2023/09/03 04:26:40;;;;;;;4.05;2.28;;;;;;;;;;5016511;28;20409;-81
2023/09/03 04:29:10;;;;;;;7.03;2.13;;;;;;;;;;5006665;28;20065;-81
2023/09/03 04:31:40;;;;;;;3.53;1.65;;;;;;;;;;5021103;28;20053;-82
2023/09/03 04:34:12;;;;;;;3.53;1.65;;;;;;;;;;4999094;28;20050;-82
2023/09/03 04:36:42;;;;;;;4.68;1.58;;;;;;;;;;5015708;28;20053;-82
2023/09/03 04:39:15;;;;;;;7.82;2.42;;;;;;;;;;5031844;28;20058;-82
2023/09/03 04:41:44;;;;;;;4.15;2.50;;;;;;;;;;5004393;28;20052;-82
2023/09/03 04:44:14;;;;;;;3.72;1.65;;;;;;;;;;5016095;28;20049;-82
2023/09/03 04:46:51;;;;;;;2.42;1.52;;;;;;;;;;5000014;28;20403;-82
2023/09/03 04:49:23;;;;;;;5.07;2.40;;;;;;;;;;5015501;28;20050;-81
2023/09/03 04:51:52;;;;;;;2.05;1.85;;;;;;;;;;5014231;28;20046;-81
2023/09/03 04:54:22;;;;;;;3.00;2.08;;;;;;;;;;5002940;28;20061;-81
2023/09/03 04:56:50;;;;;;;9.48;4.10;;;;;;;;;;4999077;28;20054;-81
2023/09/03 04:59:20;;;;;;;3.00;2.63;;;;;;;;;;5015008;28;20056;-82
2023/09/03 05:01:49;;;;;;;2.10;1.90;;;;;;;;;;4999164;28;20067;-82
2023/09/03 05:04:19;;;;;;;4.10;1.90;;;;;;;;;;4997357;28;20045;-82
2023/09/03 05:06:50;;;;;;;4.97;2.15;;;;;;;;;;5015532;28;20129;-82
2023/09/03 05:09:20;;;;;;;4.13;2.75;;;;;;;;;;4998058;28;20523;-82
2023/09/03 05:11:47;;;;;;;3.03;2.13;;;;;;;;;;4997221;28;20046;-81
2023/09/03 05:14:17;;;;;;;4.30;1.88;;;;;;;;;;5002787;28;20049;-81
2023/09/03 05:16:44;;;;;;;5.57;2.65;;;;;;;;;;4999305;28;20054;-81
2023/09/03 05:19:14;;;;;;;7.38;2.58;;;;;;;;;;4999014;28;20042;-81
2023/09/03 05:21:42;;;;;;;3.20;2.08;;;;;;;;;;5017052;28;20038;-81
2023/09/03 05:24:11;;;;;;;3.92;2.20;;;;;;;;;;4996987;28;20042;-82
2023/09/03 05:26:41;;;;;;;2.13;1.73;;;;;;;;;;5028206;28;20053;-82
2023/09/03 05:29:11;;;;;;;3.75;2.30;;;;;;;;;;4998186;28;20404;-82
2023/09/03 05:31:40;;;;;;;2.17;1.98;;;;;;;;;;4997692;28;20054;-82
2023/09/03 05:34:08;;;;;;;3.42;2.78;;;;;;;;;;4995487;28;20056;-82
2023/09/03 05:36:39;;;;;;;2.28;2.00;;;;;;;;;;5006139;28;20053;-82
2023/09/03 05:39:09;;;;;;;3.08;1.75;;;;;;;;;;5009553;28;20408;-82
2023/09/03 05:41:39;;;;;;;6.18;2.22;;;;;;;;;;5001547;28;20530;-83
2023/09/03 05:44:09;;;;;;;5.78;2.55;;;;;;;;;;5014719;28;20041;-83
2023/09/03 05:46:43;;;;;;;2.70;2.30;;;;;;;;;;4993103;28;20060;-83
2023/09/03 05:49:10;;;;;;;3.25;2.95;;;;;;;;;;5027665;28;20050;-83
2023/09/03 05:51:37;;;;;;;3.13;2.40;;;;;;;;;;4996650;28;20042;-82
2023/09/03 05:54:06;;;;;;;2.97;1.80;;;;;;;;;;5012431;28;20057;-82
2023/09/03 05:56:36;;;;;;;3.60;2.00;;;;;;;;;;5012393;28;20050;-82
2023/09/03 05:59:08;;;;;;;3.25;2.95;;;;;;;;;;5012846;28;20050;-81
2023/09/03 06:01:40;;;;;;;6.40;2.45;;;;;;;;;;5001575;28;20052;-81
2023/09/03 06:04:14;;;;;;;4.88;2.42;;;;;;;;;;5001020;28;20046;-81
2023/09/03 06:06:43;;;;;;;2.97;2.45;;;;;;;;;;5021896;28;20052;-81
2023/09/03 06:09:10;;;;;;;3.50;2.50;;;;;;;;;;4999862;28;20073;-81
2023/09/03 06:11:39;;;;;;;4.18;3.03;;;;;;;;;;5016824;28;20049;-81
2023/09/03 06:14:09;;;;;;;6.20;2.40;;;;;;;;;;5001039;28;20057;-81
2023/09/03 06:16:36;;;;;;;2.20;1.90;;;;;;;;;;5016903;28;20050;-81
2023/09/03 06:19:03;;;;;;;4.68;2.35;;;;;;;;;;5030081;28;20052;-81
2023/09/03 06:21:31;;;;;;;4.10;2.20;;;;;;;;;;4998879;28;20073;-82
2023/09/03 06:24:00;;;;;;;9.07;3.00;;;;;;;;;;5032700;28;20121;-82
2023/09/03 06:26:30;;;;;;;5.00;3.10;;;;;;;;;;5016140;28;20057;-82
2023/09/03 06:29:03;;;;;;;2.45;2.15;;;;;;;;;;5017862;28;20053;-82
2023/09/03 06:31:30;;;;;;;3.83;2.30;;;;;;;;;;4998629;28;20057;-81
2023/09/03 06:34:00;;;;;;;3.17;2.28;;;;;;;;;;5015569;28;20054;-81
2023/09/03 06:36:29;;;;;;;2.33;1.80;;;;;;;;;;4999005;28;20129;-81
2023/09/03 06:38:57;;;;;;;3.55;1.90;;;;;;;;;;4998303;28;20050;-81
2023/09/03 06:41:24;;;;;;;4.65;2.13;;;;;;;;;;4997688;28;20523;-81
2023/09/03 06:43:54;;;;;;;4.70;2.38;;;;;;;;;;5013857;28;20054;-81
2023/09/03 06:46:25;;;;;;;4.23;2.17;;;;;;;;;;5015231;28;20057;-81
2023/09/03 06:48:55;;;;;;;3.35;2.10;;;;;;;;;;4999377;28;20054;-81
2023/09/03 06:51:22;;;;;;;6.72;2.13;;;;;;;;;;5009743;28;20046;-81
2023/09/03 06:53:49;;;;;;;2.83;2.28;;;;;;;;;;5013530;28;20050;-81
2023/09/03 06:56:19;;;;;;;3.28;1.90;;;;;;;;;;4997347;28;20053;-81
2023/09/03 06:58:48;;;;;;;2.47;1.90;;;;;;;;;;5015957;28;20056;-81
2023/09/03 07:01:17;;;;;;;3.22;1.95;;;;;;;;;;5018906;28;20042;-81
2023/09/03 07:03:48;;;;;;;3.75;2.65;;;;;;;;;;4998767;28;20046;-81
2023/09/03 07:06:17;;;;;;;2.25;1.73;;;;;;;;;;5014353;28;20057;-81
2023/09/03 07:08:47;;;;;;;10.35;2.35;;;;;;;;;;5015205;28;20045;-81
2023/09/03 07:11:15;;;;;;;2.95;1.80;;;;;;;;;;5023892;28;20057;-81
2023/09/03 07:13:44;;;;;;;2.17;1.45;;;;;;;;;;5016093;28;20056;-81
2023/09/03 07:16:11;;;;;;;2.10;1.80;;;;;;;;;;5017009;28;20507;-81
2023/09/03 07:18:39;;;;;;;2.72;1.92;;;;;;;;;;5017744;28;20404;-81
2023/09/03 07:21:08;;;;;;;2.10;1.80;;;;;;;;;;4997893;28;20057;-81
2023/09/03 07:23:40;;;;;;;6.00;1.88;;;;;;;;;;5012735;28;20061;-81
2023/09/03 07:26:08;;;;;;;1.95;1.45;;;;;;;;;;5020540;28;20073;-81
2023/09/03 07:28:35;;;;;;;6.97;2.20;;;;;;;;;;5024285;28;20065;-81
2023/09/03 07:31:03;;;;;;;2.17;1.90;;;;;;;;;;5017496;28;20060;-81
2023/09/03 07:33:35;;;;;;;1.97;1.43;;;;;;;;;;5002611;28;20054;-81
2023/09/03 07:36:02;;;;;;;3.72;1.88;;;;;;;;;;5022125;28;20088;-81
2023/09/03 07:38:33;;;;;;;2.53;1.65;;;;;;;;;;5006635;28;20053;-81
2023/09/03 07:41:02;;;;;;;3.85;1.80;;;;;;;;;;5016132;28;20047;-82
2023/09/03 07:43:30;;;;;;;4.22;2.00;;;;;;;;;;5019319;28;20052;-82
2023/09/03 07:46:00;;;;;;;4.00;2.22;;;;;;;;;;5021082;28;20065;-80
2023/09/03 07:48:29;;;;;;;4.57;1.73;;;;;;;;;;5000766;28;20061;-80
2023/09/03 07:50:59;;;;;;;3.03;1.50;;;;;;;;;;4999018;28;20061;-81
2023/09/03 07:53:29;;;;;;;5.57;1.70;;;;;;;;;;5017429;28;20057;-80
2023/09/03 07:56:02;;;;;;;;;;;;;;;;;;4997580;28;20056;-80
2023/09/03 07:58:30;;;;;;;3.80;1.88;;;;;;;;;;5002013;28;19925;-80
2023/09/03 08:00:57;;;;;;;3.45;1.50;;;;;;;;;;4980107;28;20065;-81
2023/09/03 08:03:33;;;;;;;2.00;1.55;;;;;;;;;;5013081;28;20045;-81
2023/09/03 08:06:00;;;;;;;2.42;1.40;;;;;;;;;;5015445;28;20057;-81
2023/09/03 08:08:28;;;;;;;1.38;1.27;;;;;;;;;;5015070;28;20053;-81
2023/09/03 08:10:58;;;;;;;2.50;2.22;;;;;;;;;;5018866;28;20065;-81
2023/09/03 08:13:29;;;;;;;3.38;1.73;;;;;;;;;;5017675;28;20054;-81
2023/09/03 08:15:58;;;;;;;2.28;1.77;;;;;;;;;;5000435;28;20061;-81
2023/09/03 08:18:28;;;;;;;2.00;1.35;;;;;;;;;;5024364;28;20053;-81
2023/09/03 08:20:55;;;;;;;1.95;1.48;;;;;;;;;;5015509;28;20058;-81
2023/09/03 08:23:23;;;;;;;2.10;1.60;;;;;;;;;;5013967;28;20048;-81
2023/09/03 08:25:50;;;;;;;2.03;1.67;;;;;;;;;;5000945;28;20041;-81
2023/09/03 08:28:20;;;;;;;2.22;0.98;;;;;;;;;;4998620;28;20058;-81
2023/09/03 08:30:50;;;;;;;3.45;1.60;;;;;;;;;;5016582;28;20422;-81
2023/09/03 08:33:18;;;;;;;3.03;1.92;;;;;;;;;;5001482;28;20515;-81
2023/09/03 08:35:47;;;;;;;2.20;1.15;;;;;;;;;;4998354;28;20065;-81
2023/09/03 08:38:17;;;;;;;6.13;2.38;;;;;;;;;;5021044;28;20048;-81
2023/09/03 08:40:44;;;;;;;2.53;1.75;;;;;;;;;;4997032;28;20049;-81
2023/09/03 08:43:16;;;;;;;8.70;1.80;;;;;;;;;;5013081;28;20042;-80
2023/09/03 08:45:52;;;;;;;2.38;1.25;;;;;;;;;;5000805;28;20571;-80
2023/09/03 08:48:19;;;;;;;3.03;2.05;;;;;;;;;;5016336;28;20054;-80
2023/09/03 08:50:49;;;;;;;3.55;1.65;;;;;;;;;;5015163;28;20068;-80
2023/09/03 08:53:19;;;;;;;3.30;1.25;;;;;;;;;;5004243;28;20045;-80
2023/09/03 08:55:48;;;;;;;1.30;1.20;;;;;;;;;;4997391;28;20046;-81
2023/09/03 08:58:16;;;;;;;2.50;1.10;;;;;;;;;;5015805;28;20060;-81
2023/09/03 09:00:43;;;;;;;1.25;0.98;;;;;;;;;;5017784;28;20076;-82
2023/09/03 09:03:14;;;;;;;3.05;1.38;;;;;;;;;;4990060;28;20049;-84
2023/09/03 09:05:45;;;;;;;3.33;1.35;;;;;;;;;;5001635;28;20471;-84
2023/09/03 09:08:15;;;;;;;1.50;0.82;;;;;;;;;;4987664;28;20060;-84
2023/09/03 09:10:47;;;;;;;3.65;1.55;;;;;;;;;;5008983;28;20061;-84
2023/09/03 09:13:14;;;;;;;4.30;1.57;;;;;;;;;;5020618;28;20049;-84
2023/09/03 09:15:44;;;;;;;1.83;1.05;;;;;;;;;;5005655;28;20646;-84
2023/09/03 09:18:12;;;;;;;8.48;1.67;;;;;;;;;;5006883;28;20058;-84
2023/09/03 09:20:41;;;;;;;1.90;1.15;;;;;;;;;;4992552;28;20061;-84
2023/09/03 09:23:10;;;;;;;1.60;1.17;;;;;;;;;;5006776;28;20076;-84
2023/09/03 09:25:38;;;;;;;1.45;1.35;;;;;;;;;;4989837;28;20530;-83
2023/09/03 09:28:13;;;;;;;2.50;1.10;;;;;;;;;;5006777;28;20050;-84
2023/09/03 09:30:55;;;;;;;4.47;2.00;;;;;;;;;;5005010;28;20185;-84
2023/09/03 09:33:24;;;;;;;3.03;1.58;;;;;;;;;;5007565;28;20053;-84
2023/09/03 09:35:52;;;;;;;1.10;1.00;;;;;;;;;;5005225;28;20388;-83
2023/09/03 09:38:34;;;;;;;1.17;1.08;;;;;;;;;;5022367;28;20620;-83
2023/09/03 09:41:20;;;;;;;1.48;1.15;;;;;;;;;;5007751;28;20054;-82
2023/09/03 09:43:47;;;;;;;2.08;0.82;;;;;;;;;;4992715;28;20053;-83
2023/09/03 09:46:26;;;;;;;4.05;1.42;;;;;;;;;;5008004;28;20057;-84
2023/09/03 09:48:58;;;;;;;1.58;1.35;;;;;;;;;;5005890;28;20061;-83
2023/09/03 09:51:31;;;;;;;1.73;1.20;;;;;;;;;;5008215;28;20511;-83
2023/09/03 09:54:02;;;;;;;1.67;1.35;;;;;;;;;;5014992;28;20048;-83
2023/09/03 09:56:30;;;;;;;1.67;0.90;;;;;;;;;;5008720;28;20049;-83
2023/09/03 09:59:00;;;;;;;1.75;1.13;;;;;;;;;;5006824;28;20057;-83
2023/09/03 10:01:43;;;;;;;1.77;1.08;;;;;;;;;;4991784;28;20065;-84
2023/09/03 10:04:12;;;;;;;2.83;1.98;;;;;;;;;;4991507;28;20056;-84
2023/09/03 10:06:40;;;;;;;2.85;1.80;;;;;;;;;;5007834;28;20493;-84
2023/09/03 10:09:10;;;;;;;1.88;1.13;;;;;;;;;;5008889;28;20041;-84
2023/09/03 10:11:37;;;;;;;1.73;1.27;;;;;;;;;;5011344;28;20514;-84
2023/09/03 10:14:07;;;;;;;3.05;1.23;;;;;;;;;;5010989;28;20060;-84
2023/09/03 10:16:39;;;;;;;5.55;1.20;;;;;;;;;;5010479;28;20061;-83
2023/09/03 10:19:14;;;;;;;1.30;1.00;;;;;;;;;;4990830;28;20068;-83
2023/09/03 10:21:42;;;;;;;3.40;1.42;;;;;;;;;;5002793;28;20056;-83
2023/09/03 10:24:14;;;;;;;2.08;0.95;;;;;;;;;;5019464;28;20053;-83
2023/09/03 10:26:45;;;;;;;1.40;1.02;;;;;;;;;;5006991;28;20053;-83
2023/09/03 10:29:14;;;;;;;1.55;1.10;;;;;;;;;;5005855;28;20395;-83
2023/09/03 10:31:42;;;;;;;1.00;0.90;;;;;;;;;;4992296;28;20050;-84
2023/09/03 10:34:15;;;;;;;1.90;1.42;;;;;;;;;;5009058;28;20038;-83
2023/09/03 10:37:03;;;;;;;1.20;0.90;;;;;;;;;;5004924;28;20389;-84
2023/09/03 10:39:35;;;;;;;;;;;;;;;;;;5023655;28;20057;-83
2023/09/03 10:42:28;;;;;;;1.13;0.82;;;;;;;;;;4991934;28;19932;-84
2023/09/03 10:44:57;;;;;;;2.10;0.88;;;;;;;;;;4992565;28;20050;-84
2023/09/03 10:47:27;;;;;;;1.40;1.30;;;;;;;;;;5007702;28;20545;-84
2023/09/03 10:49:58;;;;;;;2.35;1.45;;;;;;;;;;4990363;28;20060;-84
2023/09/03 10:52:37;;;;;;;2.03;1.02;;;;;;;;;;5007446;28;20058;-84
2023/09/03 10:55:12;;;;;;;1.20;0.90;;;;;;;;;;4997759;28;20042;-84
2023/09/03 10:57:44;;;;;;;1.65;1.20;;;;;;;;;;4994774;28;20052;-84
2023/09/03 11:00:23;;;;;;;1.45;1.35;;;;;;;;;;4996136;28;20053;-84
2023/09/03 11:02:51;;;;;;;1.50;1.35;;;;;;;;;;4992484;28;20053;-84
2023/09/03 11:05:26;;;;;;;4.95;1.38;;;;;;;;;;5010724;28;20038;-84
2023/09/03 11:08:21;;;;;;;1.50;1.33;;;;;;;;;;5010257;28;20081;-84
2023/09/03 11:10:51;;;;;;;5.00;1.55;;;;;;;;;;5013080;28;20049;-83
2023/09/03 11:13:21;;;;;;;2.08;1.40;;;;;;;;;;4995215;28;20408;-84
2023/09/03 11:16:20;;;;;;;1.88;1.00;;;;;;;;;;5009298;28;20037;-83
2023/09/03 11:19:28;;;;;;;1.30;0.95;;;;;;;;;;4994956;28;20046;-83
2023/09/03 11:22:13;;;;;;;1.45;1.17;;;;;;;;;;5009963;28;20508;-83
2023/09/03 11:25:00;;;;;;;1.40;1.10;;;;;;;;;;5011050;28;20065;-84
2023/09/03 11:27:53;;;;;;;1.10;1.00;;;;;;;;;;5011965;28;20053;-83
2023/09/03 11:30:23;;;;;;;2.88;1.17;;;;;;;;;;5012876;28;20084;-83
2023/09/03 11:32:52;;;;;;;2.30;1.20;;;;;;;;;;5012978;28;20057;-83
2023/09/03 11:35:22;;;;;;;1.48;1.38;;;;;;;;;;4992694;28;20042;-83
2023/09/03 11:37:51;;;;;;;2.47;1.20;;;;;;;;;;4993907;28;20254;-83
2023/09/03 11:40:25;;;;;;;2.85;1.10;;;;;;;;;;5009499;28;20041;-84
2023/09/03 11:42:52;;;;;;;1.80;1.48;;;;;;;;;;4996869;28;20058;-85
2023/09/03 11:45:21;;;;;;;2.05;1.42;;;;;;;;;;5010119;28;20048;-84
2023/09/03 11:48:12;;;;;;;;;;;;;;;;;;;;;
2023/09/03 11:50:50;;;;;;;1.80;1.50;;;;;;;;;;5007690;28;20057;-84
2023/09/03 11:53:54;;;;;;;2.30;1.88;;;;;;;;;;4994573;28;20054;-84
2023/09/03 11:56:50;;;;;;;2.33;1.58;;;;;;;;;;5012690;28;20034;-83
2023/09/03 11:59:21;;;;;;;2.90;1.52;;;;;;;;;;4993791;28;20056;-83
2023/09/03 12:01:51;;;;;;;5.72;2.13;;;;;;;;;;4994291;28;20060;-83
2023/09/03 12:04:18;;;;;;;2.15;1.83;;;;;;;;;;5010444;28;20053;-83
2023/09/03 12:06:49;;;;;;;2.67;1.98;;;;;;;;;;4992514;28;20049;-83
2023/09/03 12:09:21;;;;;;;2.58;2.03;;;;;;;;;;5021570;28;20069;-83
2023/09/03 12:11:49;;;;;;;2.40;2.10;;;;;;;;;;5007684;28;20392;-83
2023/09/03 12:14:28;;;;;;;2.67;1.50;;;;;;;;;;5010657;28;20061;-84
2023/09/03 12:16:55;;;;;;;4.95;1.98;;;;;;;;;;5008028;28;20053;-84
2023/09/03 12:19:23;;;;;;;2.25;2.05;;;;;;;;;;5012435;28;20054;-84
2023/09/03 12:21:51;;;;;;;1.67;1.40;;;;;;;;;;5010482;28;20057;-84
2023/09/03 12:24:26;;;;;;;2.35;1.48;;;;;;;;;;5010656;28;20045;-84
2023/09/03 12:27:03;;;;;;;1.80;1.60;;;;;;;;;;5012704;28;20053;-84
2023/09/03 12:29:34;;;;;;;4.55;1.48;;;;;;;;;;5009839;28;20058;-84
2023/09/03 12:32:01;;;;;;;1.73;1.48;;;;;;;;;;5010565;28;20053;-84
2023/09/03 12:34:34;;;;;;;1.85;1.17;;;;;;;;;;5010616;28;20069;-84
2023/09/03 12:37:08;;;;;;;2.40;1.48;;;;;;;;;;5010152;28;20549;-84
2023/09/03 12:39:37;;;;;;;7.35;1.73;;;;;;;;;;5011809;28;20062;-84
2023/09/03 12:42:08;;;;;;;1.52;1.23;;;;;;;;;;5009742;28;20546;-84
2023/09/03 12:44:35;;;;;;;1.23;1.00;;;;;;;;;;5010752;28;20069;-84
2023/09/03 12:47:05;;;;;;;3.00;1.33;;;;;;;;;;5010383;28;20073;-84
2023/09/03 12:49:32;;;;;;;1.77;1.60;;;;;;;;;;4993912;28;20060;-84
2023/09/03 12:52:02;;;;;;;1.67;1.50;;;;;;;;;;5009069;28;21405;-84
2023/09/03 12:54:34;;;;;;;1.30;1.20;;;;;;;;;;5009574;28;21567;-83
2023/09/03 12:57:07;;;;;;;1.80;1.55;;;;;;;;;;5012090;28;20057;-84
2023/09/03 12:59:36;;;;;;;1.52;1.20;;;;;;;;;;5009705;28;20054;-84
2023/09/03 13:02:04;;;;;;;3.70;1.40;;;;;;;;;;5010562;28;20046;-83
2023/09/03 13:04:33;;;;;;;2.00;1.77;;;;;;;;;;5008270;28;20042;-84
2023/09/03 13:07:00;;;;;;;1.85;1.48;;;;;;;;;;4999402;28;20053;-84
2023/09/03 13:09:29;;;;;;;1.35;1.20;;;;;;;;;;5011335;28;20054;-84
2023/09/03 13:11:59;;;;;;;2.10;1.20;;;;;;;;;;5010411;28;20050;-84
2023/09/03 13:14:32;;;;;;;2.40;1.58;;;;;;;;;;5005331;28;20065;-83
2023/09/03 13:17:02;;;;;;;2.30;1.58;;;;;;;;;;4994070;28;20411;-83
2023/09/03 13:19:29;;;;;;;6.13;1.55;;;;;;;;;;4992731;28;20065;-83
2023/09/03 13:25:00;;;;;;;2.05;1.83;;;;;;;;;;5008876;28;20061;-84
2023/09/03 13:27:27;;;;;;;2.88;1.60;;;;;;;;;;5009339;28;20056;-84
2023/09/03 13:30:01;;;;;;;1.88;1.65;;;;;;;;;;5002562;28;20048;-83
2023/09/03 13:32:31;;;;;;;1.52;1.42;;;;;;;;;;5008695;28;20507;-84
2023/09/03 13:35:00;;;;;;;2.10;1.50;;;;;;;;;;5008301;28;20050;-84
2023/09/03 13:37:39;;;;;;;2.70;1.95;;;;;;;;;;5009275;28;20081;-84
2023/09/03 13:40:10;;;;;;;5.03;1.90;;;;;;;;;;5007731;28;20050;-83
2023/09/03 13:42:37;;;;;;;2.05;1.50;;;;;;;;;;5006320;28;20440;-84
2023/09/03 13:45:19;;;;;;;1.48;1.38;;;;;;;;;;5005572;28;20061;-84
2023/09/03 13:48:14;;;;;;;2.65;1.20;;;;;;;;;;5021258;22;20049;-82
2023/09/03 13:50:42;;;;;;;1.30;1.20;;;;;;;;;;4995560;28;20058;-82
2023/09/03 13:53:09;;;;;;;1.90;1.50;;;;;;;;;;4995558;28;20048;-82
2023/09/03 13:55:36;;;;;;;1.98;1.70;;;;;;;;;;4980285;28;20049;-82
2023/09/03 13:58:04;;;;;;;3.13;2.25;;;;;;;;;;4987332;28;20049;-82
2023/09/03 14:00:33;;;;;;;1.90;1.70;;;;;;;;;;5001480;28;20416;-82
2023/09/03 14:03:38;;;;;;;4.40;2.20;;;;;;;;;;4985484;28;20050;-82
2023/09/03 15:05:07;;;;;;;2.08;1.42;;;;;;;;;;4992546;28;20054;-82
2023/09/03 15:07:34;;;;;;;2.78;1.70;;;;;;;;;;4970071;28;20050;-82
2023/09/03 15:10:02;;;;;;;2.05;1.83;;;;;;;;;;4994652;28;20050;-82
2023/09/03 15:12:29;;;;;;;1.73;1.63;;;;;;;;;;4994424;28;20050;-82
2023/09/03 15:17:48;;;;;;;3.40;1.55;;;;;;;;;;5010238;28;20043;-81
2023/09/03 15:20:20;;;;;;;5.55;1.42;;;;;;;;;;4966198;28;20047;-81
2023/09/03 15:22:47;;;;;;;1.55;1.45;;;;;;;;;;4982137;28;20058;-81
2023/09/03 15:25:14;;;;;;;3.30;1.55;;;;;;;;;;4964392;28;20051;-81
2023/09/03 15:31:16;;;;;;;1.67;1.58;;;;;;;;;;4966012;28;20050;-83
2023/09/03 15:33:45;;;;;;;;;;;;;;;;;;4975758;28;20073;-83
2023/09/03 15:36:16;;;;;;;1.55;1.45;;;;;;;;;;4973881;28;19930;-84
2023/09/03 15:38:43;;;;;;;2.85;1.95;;;;;;;;;;4971404;28;20051;-84
2023/09/03 15:41:13;;;;;;;1.35;1.23;;;;;;;;;;4971201;28;20058;-83
2023/09/03 15:43:42;;;;;;;1.98;1.65;;;;;;;;;;4953832;28;20066;-84
2023/09/03 15:46:10;;;;;;;2.13;1.60;;;;;;;;;;4953822;28;20050;-83
2023/09/03 15:48:53;;;;;;;1.58;1.48;;;;;;;;;;4970556;28;20855;-83
2023/09/03 15:51:29;;;;;;;1.67;1.58;;;;;;;;;;4971676;28;20054;-84
2023/09/03 15:53:58;;;;;;;2.00;1.83;;;;;;;;;;4969960;28;20050;-84
2023/09/03 15:56:39;;;;;;;2.10;1.65;;;;;;;;;;4969263;28;20039;-84
2023/09/03 15:59:12;;;;;;;2.28;1.70;;;;;;;;;;4969280;28;20046;-83
2023/09/03 16:01:53;;;;;;;2.17;1.98;;;;;;;;;;4968637;28;21038;-83
2023/09/03 16:04:25;;;;;;;3.53;1.73;;;;;;;;;;4981082;28;20065;-84
2023/09/03 16:06:56;;;;;;;3.10;2.40;;;;;;;;;;4970909;28;20058;-84
2023/09/03 16:09:26;;;;;;;2.55;2.33;;;;;;;;;;4972394;28;20051;-84
2023/09/03 16:11:53;;;;;;;2.85;2.40;;;;;;;;;;4972489;28;20046;-84
2023/09/03 16:14:25;;;;;;;3.42;3.13;;;;;;;;;;4980793;28;20425;-84
2023/09/03 16:16:53;;;;;;;6.15;2.38;;;;;;;;;;4968568;28;20489;-84